Terminal Aerodrome Forecast
Issued by NWS

Home | Current Version | Previous Version | Text Only | Print | Product List | Glossary On
Versions: 1 2 3 4 5 6 7 8 9 10 11 12 13 14 15 16 17 18
409
FTUS42 KTAE 201120
TAFDHN
TAF
KDHN 201120Z 2012/2112 VRB03KT 2SM BR BKN002
     FM201300 VRB04KT 4SM BR SCT002
     FM201400 30005KT P6SM SCT040
     FM202100 30006KT P6SM TS BKN040CB
     FM210000 VRB03KT P6SM SCT040 BKN250=

USA.gov is the U.S. government's official web portal to all federal, state and local government web resources and services.